createdAt,value
2023-03-29T00:00:49.805Z,2.33
2023-03-29T00:03:17.228Z,1.90
2023-03-29T00:05:44.768Z,2.43
2023-03-29T00:08:14.620Z,2.20
2023-03-29T00:10:42.358Z,2.30
2023-03-29T00:13:08.923Z,2.30
2023-03-29T00:15:35.522Z,2.60
2023-03-29T00:18:02.018Z,2.20
2023-03-29T00:20:28.898Z,3.30
2023-03-29T00:22:55.757Z,2.30
2023-03-29T00:25:22.237Z,2.70
2023-03-29T00:27:48.794Z,2.37
2023-03-29T00:30:15.926Z,2.70
2023-03-29T00:32:42.825Z,2.70
2023-03-29T00:35:09.940Z,2.87
2023-03-29T00:37:37.956Z,2.00
2023-03-29T00:40:10.380Z,2.70
2023-03-29T00:42:37.148Z,2.60
2023-03-29T00:45:09.451Z,3.20
2023-03-29T00:47:53.231Z,2.80
2023-03-29T00:50:36.385Z,3.30
2023-03-29T00:53:03.513Z,2.33
2023-03-29T00:55:34.652Z,3.10
2023-03-29T00:58:04.446Z,2.60
2023-03-29T01:00:36.830Z,2.57
2023-03-29T01:03:13.471Z,2.20
2023-03-29T01:05:48.767Z,2.53
2023-03-29T01:08:25.665Z,2.60
2023-03-29T01:11:00.245Z,2.73
2023-03-29T01:13:41.795Z,2.83
2023-03-29T01:16:11.583Z,3.00
2023-03-29T01:18:38.362Z,2.80
2023-03-29T01:21:29.312Z,2.53
2023-03-29T01:24:30.340Z,2.43
2023-03-29T01:27:18.078Z,2.67
2023-03-29T01:29:54.152Z,2.60
2023-03-29T01:32:30.968Z,2.60
2023-03-29T01:35:03.938Z,2.60
2023-03-29T01:37:42.493Z,2.33
2023-03-29T01:40:09.480Z,2.60
2023-03-29T01:43:03.102Z,2.57
2023-03-29T01:45:49.678Z,1.70
2023-03-29T01:48:36.359Z,3.40
2023-03-29T01:51:09.535Z,2.80
2023-03-29T01:54:03.930Z,2.97
2023-03-29T01:56:36.815Z,3.00
2023-03-29T01:59:11.166Z,3.47
2023-03-29T02:01:42.318Z,2.97
2023-03-29T02:04:13.651Z,2.70
2023-03-29T02:06:41.656Z,2.93
2023-03-29T02:09:08.619Z,2.87
2023-03-29T02:11:36.140Z,3.10
2023-03-29T02:14:02.928Z,3.40
2023-03-29T02:16:37.548Z,2.40
2023-03-29T02:19:06.035Z,2.47
2023-03-29T02:21:53.995Z,2.97
2023-03-29T02:24:22.276Z,2.50
2023-03-29T02:26:49.223Z,2.83
2023-03-29T02:29:16.275Z,2.50
2023-03-29T02:31:49.328Z,2.90
2023-03-29T02:34:19.185Z,3.30
2023-03-29T02:37:22.197Z,2.43
2023-03-29T02:39:51.245Z,2.97
2023-03-29T02:42:20.300Z,2.57
2023-03-29T02:44:49.248Z,2.93
2023-03-29T02:47:22.950Z,2.70
2023-03-29T02:49:49.573Z,2.40
2023-03-29T02:52:22.200Z,2.73
2023-03-29T02:54:51.310Z,2.53
2023-03-29T02:57:18.160Z,2.67
2023-03-29T02:59:44.937Z,2.70
2023-03-29T03:02:11.850Z,2.30
2023-03-29T03:04:38.356Z,2.20
2023-03-29T03:07:07.758Z,2.00
2023-03-29T03:09:34.346Z,2.17
2023-03-29T03:12:01.045Z,2.00
2023-03-29T03:14:28.236Z,2.50
2023-03-29T03:16:55.180Z,2.63
2023-03-29T03:19:21.750Z,2.53
2023-03-29T03:21:48.173Z,3.13
2023-03-29T03:24:15.540Z,2.80
2023-03-29T03:26:41.997Z,2.33
2023-03-29T03:29:08.440Z,2.63
2023-03-29T03:31:34.880Z,2.77
2023-03-29T03:34:01.341Z,2.90
2023-03-29T03:36:28.992Z,2.73
2023-03-29T03:38:55.432Z,3.00
2023-03-29T03:41:22.680Z,2.70
2023-03-29T03:43:49.418Z,2.50
2023-03-29T03:46:17.091Z,2.90
2023-03-29T03:48:44.556Z,3.37
2023-03-29T03:51:11.568Z,2.50
2023-03-29T03:53:38.026Z,2.97
2023-03-29T03:56:08.904Z,3.17
2023-03-29T03:58:36.663Z,2.77
2023-03-29T04:01:04.235Z,2.60
2023-03-29T04:03:31.809Z,2.50
2023-03-29T04:06:05.156Z,2.33
2023-03-29T04:08:32.010Z,3.00
2023-03-29T04:10:59.676Z,2.70
2023-03-29T04:13:27.169Z,2.57
2023-03-29T04:15:55.258Z,2.53
2023-03-29T04:18:23.017Z,2.20
2023-03-29T04:20:50.167Z,2.77
2023-03-29T04:23:17.014Z,3.07
2023-03-29T04:25:44.036Z,2.67
2023-03-29T04:28:11.940Z,2.60
2023-03-29T04:30:38.724Z,3.23
2023-03-29T04:33:05.376Z,4.63
2023-03-29T04:35:32.400Z,3.77
2023-03-29T04:37:58.930Z,3.77
2023-03-29T04:40:25.341Z,3.80
2023-03-29T04:42:52.484Z,4.07
2023-03-29T04:45:19.068Z,4.10
2023-03-29T04:47:46.055Z,3.83
2023-03-29T04:50:13.767Z,3.20
2023-03-29T04:52:40.778Z,2.77
2023-03-29T04:55:08.665Z,3.00
2023-03-29T04:57:35.211Z,2.63
2023-03-29T05:00:01.695Z,2.50
2023-03-29T05:02:30.957Z,2.93
2023-03-29T05:04:57.363Z,3.13
2023-03-29T05:07:24.524Z,2.67
2023-03-29T05:09:50.917Z,3.13
2023-03-29T05:12:17.727Z,3.30
2023-03-29T05:14:44.145Z,2.27
2023-03-29T05:17:10.553Z,2.70
2023-03-29T05:19:38.256Z,2.93
2023-03-29T05:22:04.801Z,2.60
2023-03-29T05:24:31.206Z,2.93
2023-03-29T05:26:57.639Z,3.00
2023-03-29T05:29:24.059Z,3.20
2023-03-29T05:31:52.482Z,2.40
2023-03-29T05:34:18.999Z,3.17
2023-03-29T05:36:45.704Z,3.13
2023-03-29T05:39:15.459Z,3.10
2023-03-29T05:41:41.900Z,3.30
2023-03-29T05:44:08.527Z,2.77
2023-03-29T05:46:35.254Z,2.97
2023-03-29T05:49:02.426Z,3.23
2023-03-29T05:51:28.943Z,3.10
2023-03-29T05:53:55.403Z,3.00
2023-03-29T05:56:22.451Z,3.20
2023-03-29T05:58:49.425Z,2.53
2023-03-29T06:01:18.023Z,2.97
2023-03-29T06:03:46.324Z,2.67
2023-03-29T06:06:16.470Z,2.90
2023-03-29T06:08:43.624Z,2.40
2023-03-29T06:11:12.205Z,2.60
2023-03-29T06:13:39.117Z,2.50
2023-03-29T06:16:06.622Z,2.50
2023-03-29T06:18:33.358Z,2.50
2023-03-29T06:21:00.775Z,2.87
2023-03-29T06:23:27.459Z,2.40
2023-03-29T06:25:55.336Z,2.73
2023-03-29T06:28:22.811Z,2.73
2023-03-29T06:30:49.685Z,3.20
2023-03-29T06:33:20.463Z,3.93
2023-03-29T06:35:48.210Z,2.90
2023-03-29T06:38:15.109Z,4.03
2023-03-29T06:40:43.109Z,3.57
2023-03-29T06:43:10.106Z,3.80
2023-03-29T06:45:37.933Z,4.17
2023-03-29T06:48:06.246Z,4.30
2023-03-29T06:50:33.379Z,3.90
2023-03-29T06:53:00.069Z,3.60
2023-03-29T06:55:27.080Z,3.83
2023-03-29T06:57:53.915Z,3.33
2023-03-29T07:00:28.012Z,3.60
2023-03-29T07:02:56.626Z,4.50
2023-03-29T07:05:24.025Z,3.90
2023-03-29T07:07:55.035Z,3.60
2023-03-29T07:10:32.406Z,3.53
2023-03-29T07:13:03.460Z,3.30
2023-03-29T07:15:29.906Z,3.53
2023-03-29T07:17:57.526Z,3.20
2023-03-29T07:20:25.062Z,4.40
2023-03-29T07:22:51.836Z,4.40
2023-03-29T07:25:18.824Z,4.23
2023-03-29T07:27:46.352Z,3.80
2023-03-29T07:30:16.547Z,3.83
2023-03-29T07:32:45.481Z,3.97
2023-03-29T07:35:13.753Z,3.77
2023-03-29T07:37:42.868Z,4.10
2023-03-29T07:40:15.954Z,3.97
2023-03-29T07:42:44.417Z,4.80
2023-03-29T07:45:13.813Z,3.70
2023-03-29T07:47:41.054Z,2.83
2023-03-29T07:50:08.771Z,3.10
2023-03-29T07:52:36.795Z,3.77
2023-03-29T07:55:03.623Z,2.93
2023-03-29T07:57:30.268Z,3.30
2023-03-29T07:59:56.985Z,3.60
2023-03-29T08:02:24.038Z,3.33
2023-03-29T08:04:50.681Z,3.43
2023-03-29T08:07:21.461Z,3.00
2023-03-29T08:09:48.537Z,4.27
2023-03-29T08:12:15.131Z,3.63
2023-03-29T08:14:41.544Z,3.60
2023-03-29T08:17:07.982Z,4.40
2023-03-29T08:19:34.413Z,3.80
2023-03-29T08:22:01.159Z,4.00
2023-03-29T08:24:27.698Z,3.53
2023-03-29T08:26:54.208Z,4.40
2023-03-29T08:29:20.633Z,3.93
2023-03-29T08:31:47.198Z,4.70
2023-03-29T08:34:13.973Z,4.00
2023-03-29T08:36:40.469Z,3.97
2023-03-29T08:39:06.953Z,4.47
2023-03-29T08:41:52.946Z,4.30
2023-03-29T08:44:41.745Z,3.77
2023-03-29T08:47:37.459Z,3.60
2023-03-29T08:50:04.342Z,4.40
2023-03-29T08:53:02.485Z,4.10
2023-03-29T08:55:37.580Z,3.47
2023-03-29T08:58:08.106Z,3.43
2023-03-29T09:00:52.012Z,3.33
2023-03-29T09:03:29.474Z,4.07
2023-03-29T09:05:59.338Z,3.63
2023-03-29T09:08:26.642Z,3.40
2023-03-29T09:11:17.934Z,3.40
2023-03-29T09:14:06.951Z,4.20
2023-03-29T09:17:00.523Z,4.10
2023-03-29T09:20:03.211Z,3.53
2023-03-29T09:22:58.151Z,4.63
2023-03-29T09:25:50.877Z,3.30
2023-03-29T09:28:23.383Z,3.37
2023-03-29T09:31:05.927Z,3.33
2023-03-29T09:33:42.827Z,2.70
2023-03-29T09:36:51.166Z,3.90
2023-03-29T09:39:18.604Z,2.50
2023-03-29T09:41:54.477Z,3.20
2023-03-29T09:44:31.277Z,3.70
2023-03-29T09:47:13.180Z,2.50
2023-03-29T09:49:47.099Z,2.90
2023-03-29T09:52:17.006Z,2.57
2023-03-29T09:54:44.211Z,2.60
2023-03-29T09:57:12.521Z,2.80
2023-03-29T09:59:40.067Z,2.90
2023-03-29T10:02:12.807Z,3.10
2023-03-29T10:04:42.050Z,2.70
2023-03-29T10:07:15.583Z,3.17
2023-03-29T10:09:45.451Z,3.40
2023-03-29T10:12:13.599Z,3.27
2023-03-29T10:14:46.459Z,3.60
2023-03-29T10:17:21.761Z,3.87
2023-03-29T10:19:55.642Z,4.13
2023-03-29T10:22:24.638Z,3.80
2023-03-29T10:24:53.367Z,3.30
2023-03-29T10:27:23.772Z,3.40
2023-03-29T10:29:51.417Z,3.23
2023-03-29T10:32:27.975Z,2.90
2023-03-29T10:34:55.216Z,3.27
2023-03-29T10:37:22.947Z,3.13
2023-03-29T10:39:50.162Z,3.43
2023-03-29T10:42:19.746Z,3.50
2023-03-29T10:44:54.909Z,3.00
2023-03-29T10:47:22.151Z,3.30
2023-03-29T10:49:56.628Z,2.73
2023-03-29T10:52:23.257Z,3.27
2023-03-29T10:54:51.729Z,3.10
2023-03-29T10:57:27.173Z,2.77
2023-03-29T11:00:01.457Z,2.83
2023-03-29T11:02:53.686Z,3.10
2023-03-29T11:05:24.591Z,2.90
2023-03-29T11:08:20.756Z,3.10
2023-03-29T11:11:02.399Z,3.03
2023-03-29T11:13:59.965Z,2.20
2023-03-29T11:16:41.999Z,2.60
2023-03-29T11:19:28.247Z,2.40
2023-03-29T11:22:09.586Z,2.70
2023-03-29T11:25:16.109Z,3.03
2023-03-29T11:28:03.828Z,2.53
2023-03-29T11:30:50.215Z,3.40
2023-03-29T11:33:41.615Z,3.30
2023-03-29T11:36:23.955Z,2.73
2023-03-29T11:39:15.456Z,2.57
2023-03-29T11:41:46.265Z,3.30
2023-03-29T11:44:30.059Z,1.80
2023-03-29T11:47:03.698Z,1.60
2023-03-29T11:49:37.376Z,2.17
2023-03-29T11:52:22.539Z,1.83
2023-03-29T11:55:23.760Z,1.97
2023-03-29T11:57:53.876Z,1.60
2023-03-29T12:00:25.007Z,2.10
2023-03-29T12:03:02.035Z,2.00
2023-03-29T12:05:34.747Z,1.43
2023-03-29T12:08:18.794Z,1.83
2023-03-29T12:10:51.425Z,1.57
2023-03-29T12:13:24.427Z,1.77
2023-03-29T12:15:58.821Z,1.60
2023-03-29T12:18:32.129Z,1.50
2023-03-29T12:21:04.706Z,1.70
2023-03-29T12:23:32.515Z,1.57
2023-03-29T12:26:16.265Z,2.20
2023-03-29T12:29:05.342Z,1.77
2023-03-29T12:31:58.269Z,1.50
2023-03-29T12:35:03.301Z,1.37
2023-03-29T12:37:53.472Z,1.50
2023-03-29T12:40:23.108Z,1.83
2023-03-29T12:43:03.896Z,1.43
2023-03-29T12:45:35.011Z,1.90
2023-03-29T12:48:01.938Z,1.70
2023-03-29T12:50:34.862Z,1.90
2023-03-29T12:53:25.124Z,1.40
2023-03-29T12:56:08.763Z,1.40
2023-03-29T12:58:56.086Z,1.40
2023-03-29T13:01:35.263Z,1.60
2023-03-29T13:04:01.684Z,2.00
2023-03-29T13:06:52.244Z,1.90
2023-03-29T13:09:29.466Z,1.70
2023-03-29T13:11:59.656Z,1.30
2023-03-29T13:14:30.206Z,1.60
2023-03-29T13:17:18.403Z,1.80
2023-03-29T13:19:49.994Z,1.60
2023-03-29T13:22:40.642Z,1.70
2023-03-29T13:25:44.606Z,2.07
2023-03-29T13:28:29.903Z,1.70
2023-03-29T13:31:01.703Z,1.60
2023-03-29T13:33:46.455Z,1.93
2023-03-29T13:36:36.302Z,1.83
2023-03-29T13:39:06.849Z,1.70
2023-03-29T13:41:48.809Z,2.13
2023-03-29T13:44:47.729Z,1.93
2023-03-29T13:47:32.496Z,1.90
2023-03-29T13:50:05.420Z,1.90
2023-03-29T13:52:40.059Z,1.80
2023-03-29T13:55:21.610Z,1.90
2023-03-29T13:58:06.314Z,1.60
2023-03-29T14:00:39.955Z,1.70
2023-03-29T14:03:12.547Z,1.57
2023-03-29T14:05:43.174Z,1.73
2023-03-29T14:08:27.238Z,1.97
2023-03-29T14:10:55.113Z,2.27
2023-03-29T14:13:25.326Z,1.77
2023-03-29T14:15:55.226Z,1.70
2023-03-29T14:18:25.449Z,2.13
2023-03-29T14:20:55.115Z,1.90
2023-03-29T14:23:25.278Z,2.10
2023-03-29T14:25:51.973Z,1.90
2023-03-29T14:28:27.843Z,2.30
2023-03-29T14:30:55.954Z,2.20
2023-03-29T14:33:27.332Z,1.93
2023-03-29T14:35:59.409Z,2.33
2023-03-29T14:38:27.049Z,1.67
2023-03-29T14:40:58.680Z,2.20
2023-03-29T14:43:29.784Z,2.40
2023-03-29T14:45:57.649Z,1.83
2023-03-29T14:48:24.766Z,2.73
2023-03-29T14:50:51.488Z,3.17
2023-03-29T14:53:20.706Z,2.87
2023-03-29T14:55:52.806Z,2.70
2023-03-29T14:58:27.492Z,2.97
2023-03-29T15:00:54.132Z,2.63
2023-03-29T15:03:26.278Z,2.87
2023-03-29T15:05:58.370Z,2.90
2023-03-29T15:08:32.311Z,2.60
2023-03-29T15:10:59.667Z,3.60
2023-03-29T15:13:27.459Z,3.27
2023-03-29T15:15:58.955Z,2.50
2023-03-29T15:18:34.348Z,2.73
2023-03-29T15:21:02.043Z,3.00
2023-03-29T15:23:55.223Z,2.70
2023-03-29T15:26:23.268Z,3.70
2023-03-29T15:28:57.486Z,3.80
2023-03-29T15:31:34.710Z,3.13
2023-03-29T15:34:11.652Z,3.17
2023-03-29T15:36:45.038Z,3.47
2023-03-29T15:39:17.041Z,2.53
2023-03-29T15:41:44.887Z,3.33
2023-03-29T15:44:14.897Z,3.30
2023-03-29T15:46:41.917Z,3.40
2023-03-29T15:49:12.642Z,3.70
2023-03-29T15:51:39.868Z,3.27
2023-03-29T15:54:07.762Z,3.90
2023-03-29T15:57:01.778Z,3.17
2023-03-29T15:59:28.283Z,3.60
2023-03-29T16:01:55.212Z,3.50
2023-03-29T16:04:22.605Z,3.50
2023-03-29T16:06:52.678Z,2.40
2023-03-29T16:09:20.359Z,3.20
2023-03-29T16:11:47.447Z,2.50
2023-03-29T16:14:17.804Z,2.03
2023-03-29T16:16:44.393Z,2.30
2023-03-29T16:19:11.114Z,2.80
2023-03-29T16:21:37.818Z,2.50
2023-03-29T16:24:04.719Z,2.50
2023-03-29T16:26:31.687Z,2.50
2023-03-29T16:28:58.133Z,2.10
2023-03-29T16:31:26.833Z,3.17
2023-03-29T16:33:53.865Z,2.60
2023-03-29T16:36:20.347Z,2.50
2023-03-29T16:38:47.265Z,2.73
2023-03-29T16:41:17.588Z,2.57
2023-03-29T16:43:44.292Z,2.50
2023-03-29T16:46:11.653Z,2.20
2023-03-29T16:48:38.711Z,2.10
2023-03-29T16:51:05.729Z,3.17
2023-03-29T16:53:32.122Z,3.10
2023-03-29T16:55:58.518Z,2.20
2023-03-29T16:58:24.937Z,5.47
2023-03-29T17:00:54.486Z,2.93
2023-03-29T17:03:21.204Z,5.23
2023-03-29T17:05:52.828Z,3.90
2023-03-29T17:08:21.172Z,4.20
2023-03-29T17:10:52.697Z,3.90
2023-03-29T17:13:20.606Z,2.43
2023-03-29T17:15:47.063Z,3.10
2023-03-29T17:18:14.157Z,3.07
2023-03-29T17:20:40.621Z,3.10
2023-03-29T17:23:08.749Z,3.10
2023-03-29T17:25:35.482Z,3.50
2023-03-29T17:28:01.872Z,3.20
2023-03-29T17:30:28.467Z,3.00
2023-03-29T17:32:55.237Z,2.90
2023-03-29T17:35:21.807Z,3.00
2023-03-29T17:37:48.549Z,2.60
2023-03-29T17:40:14.958Z,2.70
2023-03-29T17:42:41.950Z,3.07
2023-03-29T17:45:10.008Z,3.60
2023-03-29T17:47:37.595Z,3.90
2023-03-29T17:50:06.103Z,3.13
2023-03-29T17:52:32.650Z,2.70
2023-03-29T17:54:59.014Z,2.57
2023-03-29T17:57:25.557Z,3.73
2023-03-29T17:59:52.041Z,3.00
2023-03-29T18:02:23.296Z,3.10
2023-03-29T18:04:50.684Z,3.60
2023-03-29T18:07:17.436Z,3.37
2023-03-29T18:09:44.034Z,3.83
2023-03-29T18:12:10.965Z,3.10
2023-03-29T18:14:37.375Z,3.33
2023-03-29T18:17:04.046Z,3.63
2023-03-29T18:19:30.841Z,2.90
2023-03-29T18:21:57.480Z,3.30
2023-03-29T18:24:23.943Z,3.30
2023-03-29T18:26:50.777Z,3.17
2023-03-29T18:29:17.250Z,3.10
2023-03-29T18:31:45.790Z,3.03
2023-03-29T18:34:12.383Z,3.07
2023-03-29T18:36:39.586Z,2.23
2023-03-29T18:39:06.099Z,2.90
2023-03-29T18:41:34.271Z,2.80
2023-03-29T18:44:00.874Z,2.80
2023-03-29T18:46:31.920Z,2.63
2023-03-29T18:48:59.503Z,2.63
2023-03-29T18:51:28.066Z,2.57
2023-03-29T18:53:56.016Z,2.90
2023-03-29T18:56:22.936Z,6.43
2023-03-29T18:58:49.441Z,2.40
2023-03-29T19:01:16.187Z,2.37
2023-03-29T19:03:42.745Z,2.50
2023-03-29T19:06:09.470Z,2.03
2023-03-29T19:08:38.670Z,2.20
2023-03-29T19:11:07.335Z,2.90
2023-03-29T19:13:34.808Z,3.60
2023-03-29T19:16:02.159Z,3.43
2023-03-29T19:18:28.906Z,3.90
2023-03-29T19:20:55.444Z,4.23
2023-03-29T19:23:25.058Z,4.20
2023-03-29T19:25:56.540Z,2.77
2023-03-29T19:28:24.199Z,3.13
2023-03-29T19:30:50.685Z,3.93
2023-03-29T19:33:17.399Z,3.23
2023-03-29T19:35:44.148Z,3.30
2023-03-29T19:38:10.892Z,3.70
2023-03-29T19:40:37.423Z,4.27
2023-03-29T19:43:04.602Z,5.00
2023-03-29T19:45:31.224Z,4.77
2023-03-29T19:48:02.603Z,4.10
2023-03-29T19:50:31.614Z,3.50
2023-03-29T19:52:58.484Z,4.33
2023-03-29T19:55:25.404Z,4.27
2023-03-29T19:57:52.283Z,4.77
2023-03-29T20:00:19.169Z,4.97
2023-03-29T20:02:45.699Z,3.90
2023-03-29T20:05:12.514Z,4.37
2023-03-29T20:07:38.900Z,4.00
2023-03-29T20:10:05.991Z,4.07
2023-03-29T20:12:32.410Z,4.47
2023-03-29T20:14:58.940Z,3.60
2023-03-29T20:17:25.653Z,3.83
2023-03-29T20:19:53.930Z,4.57
2023-03-29T20:22:20.415Z,4.53
2023-03-29T20:24:47.164Z,4.10
2023-03-29T20:27:13.854Z,4.53
2023-03-29T20:29:40.386Z,4.03
2023-03-29T20:32:07.001Z,4.23
2023-03-29T20:34:33.587Z,3.70
2023-03-29T20:37:00.758Z,4.47
2023-03-29T20:39:29.631Z,5.20
2023-03-29T20:41:56.142Z,4.17
2023-03-29T20:44:26.301Z,4.40
2023-03-29T20:47:06.652Z,4.10
2023-03-29T20:49:39.681Z,4.63
2023-03-29T20:52:10.577Z,4.83
2023-03-29T20:54:37.326Z,4.63
2023-03-29T20:57:07.817Z,4.10
2023-03-29T20:59:35.590Z,4.23
2023-03-29T21:02:02.051Z,4.40
2023-03-29T21:04:28.579Z,4.20
2023-03-29T21:06:56.154Z,5.00
2023-03-29T21:09:23.800Z,5.13
2023-03-29T21:11:50.804Z,4.60
2023-03-29T21:14:23.155Z,4.63
2023-03-29T21:16:49.958Z,4.40
2023-03-29T21:19:17.055Z,4.57
2023-03-29T21:21:44.918Z,4.50
2023-03-29T21:24:13.753Z,4.27
2023-03-29T21:26:41.562Z,5.20
2023-03-29T21:29:08.089Z,8.57
2023-03-29T21:31:34.703Z,6.20
2023-03-29T21:34:01.238Z,4.67
2023-03-29T21:36:27.907Z,3.43
2023-03-29T21:38:54.647Z,3.60
2023-03-29T21:41:21.927Z,3.10
2023-03-29T21:43:48.421Z,2.60
2023-03-29T21:46:15.006Z,2.00
2023-03-29T21:48:41.832Z,2.90
2023-03-29T21:51:08.749Z,2.80
2023-03-29T21:53:35.187Z,3.00
2023-03-29T21:56:01.726Z,2.93
2023-03-29T21:58:28.216Z,2.67
2023-03-29T22:00:56.195Z,2.70
2023-03-29T22:03:23.039Z,2.90
2023-03-29T22:06:01.148Z,2.13
2023-03-29T22:08:27.890Z,2.47
2023-03-29T22:10:56.585Z,2.80
2023-03-29T22:13:28.259Z,2.97
2023-03-29T22:15:59.106Z,3.10
2023-03-29T22:18:27.971Z,2.53
2023-03-29T22:20:54.572Z,2.50
2023-03-29T22:23:21.112Z,2.77
2023-03-29T22:25:47.530Z,2.00
2023-03-29T22:28:14.657Z,2.80
2023-03-29T22:30:41.323Z,2.50
2023-03-29T22:33:07.772Z,2.80
2023-03-29T22:35:35.520Z,2.40
2023-03-29T22:38:02.134Z,2.50
2023-03-29T22:40:28.605Z,2.53
2023-03-29T22:42:55.006Z,2.50
2023-03-29T22:45:21.427Z,2.43
2023-03-29T22:47:47.815Z,2.23
2023-03-29T22:50:14.308Z,2.50
2023-03-29T22:52:40.864Z,2.70
2023-03-29T22:55:07.577Z,3.13
2023-03-29T22:57:34.049Z,2.47
2023-03-29T23:00:00.640Z,2.30
2023-03-29T23:02:27.053Z,2.27
2023-03-29T23:04:53.495Z,2.60
2023-03-29T23:07:19.953Z,2.67
2023-03-29T23:09:46.512Z,2.63
2023-03-29T23:12:12.942Z,2.57
2023-03-29T23:14:42.495Z,2.60
2023-03-29T23:17:10.242Z,3.23
2023-03-29T23:19:37.834Z,2.50
2023-03-29T23:22:04.428Z,2.37
2023-03-29T23:24:30.945Z,2.67
2023-03-29T23:26:57.525Z,2.37
2023-03-29T23:29:26.230Z,2.30
2023-03-29T23:31:53.794Z,3.23
2023-03-29T23:34:20.338Z,3.03
2023-03-29T23:36:46.788Z,2.63
2023-03-29T23:39:14.216Z,2.70
2023-03-29T23:41:40.968Z,2.30
2023-03-29T23:44:07.756Z,3.00
2023-03-29T23:46:34.548Z,2.97
2023-03-29T23:49:00.975Z,2.87
2023-03-29T23:51:28.424Z,2.90
2023-03-29T23:53:55.877Z,2.70
2023-03-29T23:56:23.001Z,2.50
2023-03-29T23:58:50.128Z,3.03
